Airfield :
LOGIN :

Register | Disclaimer

   EN    FR    IT 

 










Legend :    VFR   Marginal VFR   IFR   Intensive IFR   Very Intensive IFR
Visi :
Ceiling :
>= 8 km
>= 3000ft
5 to 8 km
1000 to 3000 ft
1500m to 5 km
500 to 1000 ft
800 to 1500m
200 to 500 ft
< 800m
< 200 ft
Symbols :   Thunderstorms  Fog  Heavy snow  Heavy precipitations  Wind > 20 kt
SIGMETs :     Misc.  Thunderstorms  Icing  Turbulence  Mountain Waves  Volcanic Ashes






- Airport Elevation : 405 ft
- IATA code : ODH


EGVO - RAF Odiham

CURRENT METAR :
  • 262250Z AUTO 21010KT 2600 BR OVC002/// 08/07 Q1010

EXPIRED METARs :
  • 262150Z AUTO 20011KT 2400 BR OVC003/// 07/06 Q1010
  • 262050Z AUTO 19012KT 2700 BR OVC004/// 06/06 Q1010

TAF AMD TAF EGVO
Valid from the 26 at 16:00 until the 27 at 00:00 UTC


261609Z 2616/2624 17012KT 9999 BKN006
BECMG 2616/2618 SCT004 BKN006
TEMPO 2616/2618 5000 -DZ
PROB30
TEMPO 2616/2618 19015G25KT
PROB30
TEMPO 2618/2624 3000 RADZ



MET'MAP, your aeronautical weather chart ! - Copyright ORBIFLY December 2007 - Disclaimer

ORBIFLY MET'MAP TEAM :

Programming & Development : Alexandra Zaïnal
Concept & original design : Baudouin d'Aumeries
Assistance for programming : Marc-Olivier Méhu
Technical & hardware support : Manuel Goepfert

Contact : metmap@orbifly.com




SOURCES & CREDITS :

   NOAA